Date,TemperatureHighF,TemperatureAvgF,TemperatureLowF,DewpointHighF,DewpointAvgF,DewpointLowF,HumidityHigh,HumidityAvg,HumidityLow,PressureMaxIn,PressureMinIn,WindSpeedMaxMPH,WindSpeedAvgMPH,GustSpeedMaxMPH,PrecipitationSumIn
2014-1-1,51.9,37.2,28.1,29.1,23.0,18.5,71,57,40,30.09,29.80,8,1,8,0.00
2014-1-2,37.1,33.4,28.5,30.4,27.2,23.5,94,79,60,29.80,29.33,3,0,4,0.01
2014-1-3,30.6,18.9,12.3,27.5,7.0,3.3,89,60,44,30.18,29.37,17,2,22,0.00
2014-1-4,36.3,23.6,12.4,19.8,12.3,4.6,75,62,43,30.20,29.98,5,1,6,0.04
2014-1-5,48.4,39.8,28.7,47.6,36.2,18.4,97,87,65,29.98,29.34,7,1,9,0.53
2014-1-6,50.3,31.9,5.1,47.6,20.8,-10.3,91,64,45,29.77,29.18,15,3,18,0.01
2014-1-7,19.0,9.6,0.9,1.0,-5.4,-12.4,65,50,36,30.18,29.77,7,1,10,0.00
2014-1-8,33.7,22.4,9.7,15.6,7.4,-1.7,68,53,41,30.31,30.17,5,1,7,0.00
2014-1-9,40.3,32.2,25.7,22.9,18.5,14.5,71,57,44,30.32,30.17,3,0,5,0.00
2014-1-10,42.6,37.4,32.5,41.3,34.1,22.1,96,88,62,30.20,29.82,2,0,2,0.31
2014-1-11,56.1,47.7,39.2,55.3,45.8,34.5,97,93,65,29.82,29.13,8,1,14,0.33
2014-1-12,50.4,43.1,35.0,35.8,31.1,27.4,77,63,47,29.80,29.32,10,2,14,0.00
2014-1-13,58.4,46.7,35.7,38.3,33.4,27.1,73,60,43,29.79,29.55,5,1,8,0.00
2014-1-14,48.1,43.6,36.2,45.8,39.6,31.2,95,86,69,29.62,29.41,6,1,8,0.13
2014-1-15,52.4,37.5,31.2,40.0,32.4,28.3,95,83,58,29.69,29.55,8,1,12,0.02
2014-1-16,35.3,30.4,23.2,29.2,23.0,17.7,93,75,52,29.73,29.59,6,0,6,0.05
2014-1-17,48.8,37.6,29.7,31.6,25.4,19.3,90,62,41,29.66,29.52,6,1,8,0.00
2014-1-18,32.9,25.7,20.4,30.5,15.1,9.6,93,65,48,29.68,29.55,9,1,10,0.01
2014-1-19,44.7,33.1,24.5,31.4,23.3,14.9,77,67,52,29.65,29.48,7,2,11,0.03
2014-1-20,57.1,43.1,33.8,31.5,25.5,21.5,73,52,28,29.56,29.37,7,2,10,0.00
2014-1-21,34.3,27.6,16.8,29.4,23.8,10.9,92,86,73,29.60,29.37,5,1,11,0.00
2014-1-22,18.4,12.7,5.3,10.8,1.0,-5.3,77,60,39,29.80,29.59,6,1,14,0.00
2014-1-23,23.8,13.5,4.4,12.7,1.3,-5.1,76,59,39,30.20,29.80,10,1,12,0.00
2014-1-24,20.3,11.0,1.0,4.8,-1.4,-7.3,68,57,45,30.27,29.79,7,1,8,0.00
2014-1-25,33.1,25.7,17.1,24.3,13.2,2.9,88,59,42,29.79,29.19,12,3,16,0.01
2014-1-26,38.0,25.6,13.6,21.4,9.6,1.8,66,51,36,29.59,29.43,11,2,16,0.00
2014-1-27,48.9,36.1,17.3,34.6,18.5,-6.2,68,49,27,29.87,29.39,10,3,15,0.10
2014-1-28,17.6,13.9,9.5,7.3,-2.2,-9.8,80,49,36,30.10,29.87,7,1,12,0.00
2014-1-29,24.3,15.2,7.0,7.6,2.6,-5.3,85,60,32,30.08,29.92,8,1,9,0.00
2014-1-30,31.2,19.7,7.7,7.7,3.3,-2.1,68,50,31,30.15,29.89,7,1,9,0.00
2014-1-31,49.4,36.7,24.7,17.0,12.0,5.7,52,37,22,29.91,29.82,7,1,8,0.00
2014-2-1,54.0,41.9,29.8,27.0,20.0,15.5,67,43,26,29.95,29.71,9,1,9,0.00
2014-2-2,63.3,51.5,42.5,47.3,35.9,23.4,83,56,41,29.72,29.61,7,2,8,0.00
2014-2-3,47.9,36.8,34.1,43.3,34.8,31.7,95,92,84,30.02,29.63,5,1,8,1.55
2014-2-4,34.2,32.0,30.1,31.9,29.2,26.4,94,89,86,30.15,29.83,4,0,6,0.00
2014-2-5,53.9,37.2,31.1,48.8,32.1,20.7,97,83,56,29.85,29.40,14,2,17,0.35
2014-2-6,35.7,30.4,25.7,23.8,20.1,16.6,73,65,54,30.03,29.82,7,1,10,0.00
2014-2-7,40.9,30.8,21.9,24.6,21.4,18.6,88,69,48,30.06,29.94,6,0,7,0.00
2014-2-8,36.9,30.3,26.2,27.7,22.8,18.8,78,73,68,30.03,29.85,5,0,5,0.00
2014-2-9,41.5,33.9,28.1,33.8,26.8,22.5,83,75,60,29.87,29.64,9,1,10,0.00
2014-2-10,35.7,30.1,21.6,22.9,16.0,10.8,68,56,37,30.01,29.74,7,1,11,0.00
2014-2-11,31.0,22.8,14.0,14.0,11.2,8.7,82,62,44,30.17,29.99,6,1,7,0.00
2014-2-12,25.5,19.6,13.5,17.9,11.2,7.4,90,70,48,30.19,29.83,9,0,10,0.00
2014-2-13,36.5,25.7,18.0,31.6,22.3,15.6,94,87,59,29.83,29.16,13,1,15,0.00
2014-2-14,49.4,39.8,28.8,30.7,24.6,18.9,72,55,36,29.42,29.24,9,1,12,0.73
2014-2-15,40.6,33.4,23.5,34.0,25.9,13.5,95,75,53,29.69,29.28,15,2,17,0.18
2014-2-16,38.8,29.6,22.6,27.8,19.6,14.4,75,66,55,29.92,29.66,10,2,15,0.00
2014-2-17,35.9,28.5,20.2,24.3,16.4,13.2,90,61,44,30.13,29.87,9,1,12,0.00
2014-2-18,52.5,35.1,26.9,30.4,26.2,20.8,89,73,29,29.87,29.75,8,2,12,0.03
2014-2-19,59.4,47.9,37.9,46.6,31.5,20.1,85,55,33,29.82,29.45,5,2,21,0.03
2014-2-20,52.7,44.8,34.3,36.0,29.4,24.0,71,56,36,29.91,29.61,2,1,8,0.00
2014-2-21,61.7,49.8,40.7,56.2,33.7,21.3,94,57,32,29.68,29.38,8,2,17,0.22
2014-2-22,62.5,49.3,39.5,29.2,22.9,19.3,51,36,21,29.81,29.68,7,2,12,0.00
2014-2-23,66.6,52.9,44.9,33.8,28.5,22.9,62,40,24,29.72,29.52,9,2,9,0.00
2014-2-24,46.3,39.2,29.6,34.5,14.5,3.8,66,38,18,29.83,29.60,10,2,15,0.00
2014-2-25,41.1,31.4,26.1,24.3,16.3,9.3,80,54,40,29.81,29.67,6,1,10,0.00
2014-2-26,37.2,30.5,21.3,21.7,12.3,1.5,71,48,24,29.71,29.52,7,1,14,0.00
2014-2-27,42.3,28.7,19.3,12.8,6.5,1.8,65,41,19,29.79,29.38,12,2,16,0.00
2014-2-28,31.2,21.1,9.9,10.2,5.6,-0.3,66,51,39,30.08,29.79,6,1,8,0.00
2014-3-1,51.5,36.3,19.9,29.3,17.8,6.4,62,48,29,30.04,29.88,7,1,7,0.00
2014-3-2,65.5,45.2,35.6,49.8,35.2,25.6,95,70,46,29.88,29.60,7,2,8,0.58
2014-3-3,35.5,20.0,8.5,34.0,17.4,4.7,95,90,85,30.08,29.62,6,1,9,0.32
2014-3-4,28.7,16.8,3.5,20.9,12.0,0.5,91,82,63,30.15,29.95,5,0,5,0.03
2014-3-5,43.1,30.8,17.9,25.3,19.6,14.9,89,65,43,30.07,29.88,4,0,7,0.21
2014-3-6,35.0,29.3,22.1,21.7,17.3,13.9,74,61,44,30.20,30.02,7,1,9,0.03
2014-3-7,36.6,29.9,24.8,30.0,24.9,18.6,91,82,68,30.03,29.69,4,0,6,0.05
2014-3-8,62.5,44.6,24.8,44.7,32.2,22.8,93,66,35,29.74,29.61,6,1,12,0.11
2014-3-9,53.6,47.8,40.9,36.2,30.2,22.4,67,51,31,29.76,29.63,6,1,9,0.00
2014-3-10,70.3,52.9,38.9,34.5,30.3,26.4,68,45,22,29.69,29.39,6,2,9,0.00
2014-3-11,67.8,58.7,52.6,44.3,38.0,32.4,52,46,38,29.43,29.31,7,1,9,0.00
2014-3-12,65.3,51.9,31.2,56.2,39.5,18.6,90,63,48,29.34,28.78,14,2,21,0.10
2014-3-13,33.3,27.0,19.4,20.4,4.6,-2.1,67,39,25,29.91,29.24,14,3,22,0.00
2014-3-14,63.1,43.5,23.5,29.6,18.8,5.0,57,39,26,29.94,29.62,9,2,11,0.00
2014-3-15,64.8,54.3,45.1,35.4,27.1,22.6,56,36,22,29.74,29.53,13,2,16,0.00
2014-3-16,50.7,37.9,27.4,31.0,27.3,24.1,93,68,37,29.81,29.70,5,1,8,0.00
2014-3-17,29.9,26.7,22.9,25.5,23.3,20.7,93,87,79,29.79,29.65,0,0,0,0.02
2014-3-18,38.9,31.5,25.8,31.3,27.4,23.9,94,85,67,29.93,29.77,4,0,6,0.45
2014-3-19,35.3,33.9,32.9,31.5,30.6,26.8,92,88,72,29.91,29.86,1,0,2,0.03
2014-3-20,57.7,47.9,40.1,40.8,29.9,20.1,94,54,24,29.71,29.56,4,2,16,0.00
2014-3-21,62.1,49.0,33.8,36.3,32.2,23.4,71,53,32,29.75,29.66,3,0,8,0.00
2014-3-22,71.1,58.0,43.1,38.1,27.9,17.7,70,36,15,29.68,29.54,10,2,11,0.00
2014-3-23,51.2,41.1,31.6,31.3,27.2,18.2,75,59,32,29.87,29.66,7,1,14,0.00
2014-3-24,41.4,31.8,20.1,18.7,11.6,7.9,68,44,29,30.00,29.80,9,1,15,0.00
2014-3-25,33.3,30.2,28.1,28.5,21.3,7.9,91,72,34,29.83,29.55,3,0,7,0.03
2014-3-26,34.6,28.5,22.4,24.7,13.2,8.3,83,53,38,30.04,29.64,10,2,18,0.06
2014-3-27,49.2,36.4,21.3,25.7,19.3,11.0,71,51,35,30.11,29.86,11,1,11,0.10
2014-3-28,62.6,52.9,44.6,54.0,43.4,24.5,94,72,41,29.87,29.70,7,2,10,0.08
2014-3-29,56.7,51.4,46.9,51.1,48.3,45.8,96,89,78,29.78,29.27,3,0,6,0.67
2014-3-30,46.9,41.9,34.1,45.8,35.2,24.4,96,79,45,29.62,29.27,17,4,27,0.32
2014-3-31,65.1,51.9,38.9,27.9,25.6,22.4,57,38,23,29.83,29.62,12,2,18,0.00
2014-4-1,74.5,56.3,38.8,41.8,33.8,26.5,71,44,28,29.84,29.62,6,1,10,0.00
2014-4-2,72.7,61.4,48.3,44.5,38.8,34.6,66,45,28,29.77,29.67,7,0,8,0.00
2014-4-3,66.6,57.9,50.0,50.5,48.1,41.7,93,71,50,29.79,29.58,7,1,8,0.04
2014-4-4,70.0,61.1,53.4,55.2,51.3,48.3,92,71,55,29.58,29.33,8,1,13,0.04
2014-4-5,58.2,52.0,42.7,52.0,32.9,26.0,86,49,32,29.83,29.40,9,2,14,0.00
2014-4-6,59.1,46.1,32.3,31.0,26.2,23.0,78,49,26,29.93,29.81,7,1,9,0.00
2014-4-7,50.4,46.5,42.0,48.0,41.1,24.9,96,84,37,29.83,29.27,10,0,14,0.54
2014-4-8,61.0,54.0,44.8,51.2,43.3,36.4,97,70,43,29.42,29.18,11,2,16,0.00
2014-4-9,63.2,51.3,40.7,40.4,34.9,29.0,82,56,33,29.77,29.40,13,1,13,0.00
2014-4-10,71.5,56.5,37.5,38.5,34.1,29.2,82,45,24,29.91,29.72,8,2,10,0.00
2014-4-11,81.1,65.2,55.5,55.5,42.8,35.3,91,48,23,29.77,29.59,9,3,16,0.03
2014-4-12,75.7,63.0,50.5,52.8,49.5,39.5,94,65,35,29.93,29.73,8,1,12,0.00
2014-4-13,85.0,70.4,55.5,54.9,51.7,46.7,80,54,28,29.79,29.65,7,1,9,0.00
2014-4-14,72.8,67.1,61.2,56.3,54.6,52.5,75,64,54,29.66,29.43,6,2,10,0.00
2014-4-15,65.9,52.6,33.5,62.7,48.2,22.0,96,85,65,29.73,29.20,13,1,22,1.08
2014-4-16,47.6,37.2,27.3,24.9,20.0,16.8,71,51,30,30.21,29.73,10,2,14,0.00
2014-4-17,54.7,44.0,32.8,32.5,26.0,18.5,72,50,32,30.31,30.17,7,1,9,0.00
2014-4-18,50.1,39.2,34.6,37.1,32.9,31.2,89,78,58,30.20,30.10,3,0,6,0.00
2014-4-19,65.5,59.2,44.2,42.8,38.8,33.3,82,48,39,29.98,29.89,11,1,11,0.00
2014-4-20,64.9,54.5,44.5,35.7,31.7,28.1,63,43,28,30.08,29.94,7,1,8,0.00
2014-4-21,74.6,57.3,38.9,41.1,34.4,28.4,77,46,21,29.94,29.56,6,1,7,0.00
2014-4-22,72.5,65.0,57.8,53.2,43.0,29.0,57,45,32,29.56,29.27,11,1,13,0.00
2014-4-23,62.6,54.1,47.6,45.5,33.5,29.2,68,47,33,29.70,29.34,13,2,16,0.00
2014-4-24,64.8,51.9,39.7,30.6,26.6,17.5,63,39,22,29.83,29.68,9,1,11,0.00
2014-4-25,67.3,56.8,50.8,56.5,42.5,25.2,95,63,32,29.69,29.36,9,1,12,0.65
2014-4-26,76.9,62.1,44.5,49.3,43.1,37.2,82,53,30,29.59,29.48,14,2,17,0.00
2014-4-27,71.6,59.8,47.6,46.7,39.8,35.3,76,50,29,29.75,29.58,6,1,8,0.00
2014-4-28,60.5,52.3,49.2,48.8,42.9,36.1,94,72,47,29.75,29.61,5,0,8,0.23
2014-4-29,51.1,49.3,46.6,49.4,47.4,44.6,96,93,88,29.82,29.67,6,0,8,0.88
2014-4-30,62.0,53.2,47.0,58.1,51.4,45.9,97,94,86,29.81,29.53,3,0,4,0.52
2014-5-1,76.1,63.8,55.0,60.4,51.5,39.9,97,69,37,29.56,29.40,7,1,12,0.03
2014-5-2,68.8,59.0,46.6,42.7,39.0,36.2,75,49,33,29.56,29.46,6,1,8,0.00
2014-5-3,71.2,61.1,48.8,45.3,40.6,36.9,73,48,32,29.57,29.43,6,1,9,0.00
2014-5-4,76.9,64.6,50.7,44.2,40.2,35.0,62,42,27,29.59,29.44,12,2,17,0.00
2014-5-5,61.2,52.7,45.5,47.4,38.5,29.3,89,61,33,29.71,29.58,5,0,7,0.03
2014-5-6,74.8,60.4,46.5,53.1,48.1,41.7,90,67,38,29.71,29.57,5,0,7,0.00
2014-5-7,72.9,65.5,59.4,56.0,51.7,49.0,82,62,44,29.83,29.71,6,1,8,0.00
2014-5-8,86.7,72.5,56.3,62.8,55.4,50.5,93,60,32,29.81,29.66,5,0,6,0.00
2014-5-9,86.8,72.7,58.8,63.3,56.0,50.1,85,58,35,29.75,29.58,6,0,7,0.01
2014-5-10,75.3,66.9,59.6,64.9,60.7,57.6,95,81,61,29.70,29.58,4,1,9,0.14
2014-5-11,77.5,66.4,54.5,60.2,56.7,51.9,96,74,43,29.83,29.67,4,0,4,0.00
2014-5-12,82.7,71.0,60.3,66.2,61.7,56.4,89,73,53,29.82,29.74,3,0,4,0.00
2014-5-13,88.7,73.0,64.7,67.9,63.8,59.4,93,76,40,29.81,29.71,7,0,9,0.05
2014-5-14,77.9,67.8,60.9,68.6,63.3,59.4,97,86,68,29.83,29.74,5,0,5,0.00
2014-5-15,72.8,65.9,62.5,64.3,62.1,59.1,96,88,71,29.77,29.49,5,0,7,1.92
2014-5-16,64.3,57.6,49.8,63.1,51.0,43.8,96,80,52,29.65,29.46,9,0,12,0.82
2014-5-17,62.7,53.6,42.7,47.3,41.2,34.3,94,67,38,29.87,29.65,3,0,6,0.05
2014-5-18,62.3,53.2,43.5,43.4,39.4,35.5,85,61,39,29.94,29.87,3,0,5,0.00
2014-5-19,67.3,55.1,41.2,46.2,40.3,34.7,89,61,30,30.02,29.87,4,0,5,0.00
2014-5-20,74.3,61.2,48.1,54.9,48.1,36.5,89,65,31,29.92,29.68,2,0,3,0.00
2014-5-21,79.6,70.3,62.2,65.3,60.0,54.5,83,71,56,29.68,29.55,3,0,3,0.00
2014-5-22,80.9,72.2,64.2,66.3,59.5,51.1,88,66,41,29.59,29.50,7,0,10,0.00
2014-5-23,76.6,67.2,57.8,53.2,48.0,43.8,75,51,32,29.73,29.57,5,0,8,0.00
2014-5-24,72.4,62.4,50.9,53.4,48.1,43.8,81,61,43,29.82,29.70,5,0,8,0.01
2014-5-25,76.1,64.4,50.3,56.6,51.4,46.8,90,65,40,29.87,29.76,2,0,4,0.00
2014-5-26,82.3,70.7,58.4,61.5,56.9,53.1,86,64,40,29.83,29.65,2,0,4,0.00
2014-5-27,82.5,71.5,63.2,70.7,63.1,56.2,94,75,59,29.69,29.54,3,0,4,0.15
2014-5-28,83.6,71.8,63.8,69.9,64.2,60.6,94,78,50,29.67,29.56,6,0,7,0.00
2014-5-29,67.1,62.6,59.5,62.7,59.3,57.7,95,89,80,29.78,29.66,1,0,2,0.23
2014-5-30,67.5,61.9,56.7,61.9,58.8,51.5,97,90,76,29.83,29.74,3,0,3,0.01
2014-5-31,74.0,63.4,53.3,59.2,53.0,49.6,97,72,46,29.92,29.81,3,0,4,0.00
2014-6-1,70.5,63.0,54.3,57.9,53.3,48.6,88,71,60,30.00,29.89,3,0,4,0.00
2014-6-2,79.9,67.5,55.9,63.8,57.7,51.8,87,72,53,29.93,29.73,3,0,3,0.00
2014-6-3,77.3,70.5,64.6,69.8,63.5,57.9,92,79,70,29.74,29.55,2,0,3,0.02
2014-6-4,83.0,71.4,64.4,68.3,63.5,60.7,95,78,48,29.58,29.34,4,0,7,0.26
2014-6-5,74.8,67.8,61.6,64.8,59.4,51.1,96,76,49,29.55,29.27,4,0,8,0.00
2014-6-6,76.1,65.4,54.0,56.3,52.7,47.5,92,66,42,29.67,29.54,5,0,6,0.00
2014-6-7,78.2,67.9,56.2,60.4,56.2,52.0,89,68,41,29.73,29.61,2,0,4,0.00
2014-6-8,78.8,71.0,63.4,68.5,63.2,57.8,94,77,64,29.64,29.46,4,0,6,0.46
2014-6-9,79.8,71.0,64.6,68.9,65.9,62.0,97,85,65,29.56,29.49,2,0,3,0.01
2014-6-10,81.1,71.9,64.9,71.0,66.9,62.6,95,85,63,29.60,29.52,0,0,0,0.03
2014-6-11,80.4,71.4,64.7,71.8,67.0,63.2,97,87,69,29.63,29.52,6,0,13,0.13
2014-6-12,75.8,69.6,65.3,71.8,66.6,63.6,95,90,77,29.59,29.47,1,0,3,0.06
2014-6-13,76.5,68.7,63.1,71.0,65.5,61.7,96,90,76,29.55,29.42,6,0,8,0.81
2014-6-14,75.7,66.4,56.4,61.9,55.9,49.5,96,72,41,29.78,29.54,4,0,5,0.00
2014-6-15,79.0,66.2,53.3,66.4,58.3,50.5,93,77,57,29.87,29.74,2,0,3,0.00
2014-6-16,85.0,74.7,64.1,70.9,66.3,61.7,94,77,54,29.82,29.70,2,0,2,0.00
2014-6-17,87.5,76.9,65.9,73.6,68.1,63.5,94,76,51,29.79,29.65,2,0,3,0.00
2014-6-18,89.4,79.8,70.6,74.2,68.5,63.5,81,69,49,29.69,29.62,3,0,4,0.00
2014-6-19,85.0,76.2,68.4,72.4,67.9,62.5,92,76,57,29.69,29.59,5,0,8,0.18
2014-6-20,79.4,71.4,66.0,68.8,66.6,64.5,96,86,65,29.71,29.58,3,0,3,0.41
2014-6-21,77.8,69.3,64.7,72.1,67.4,63.4,97,94,79,29.58,29.48,2,0,3,1.15
2014-6-22,72.9,66.6,62.5,66.3,63.1,61.6,97,89,72,29.67,29.53,2,0,3,0.07
2014-6-23,74.5,68.9,63.5,65.9,64.0,61.4,95,85,71,29.77,29.66,2,0,4,0.00
2014-6-24,81.0,72.2,63.0,71.5,66.2,60.4,93,82,70,29.78,29.64,3,0,4,0.00
2014-6-25,84.0,74.4,67.6,72.6,69.1,65.8,96,84,65,29.66,29.47,5,0,9,0.01
2014-6-26,81.5,73.6,67.6,70.2,66.5,62.9,91,79,60,29.67,29.54,3,0,6,0.00
2014-6-27,82.6,73.1,63.4,68.5,64.9,60.7,95,77,49,29.81,29.67,2,0,3,0.00
2014-6-28,78.4,72.5,68.9,68.0,65.8,62.0,92,80,65,29.90,29.80,4,0,6,0.00
2014-6-29,78.3,71.3,65.2,65.3,61.6,58.0,88,73,51,29.89,29.76,3,0,4,0.00
2014-6-30,81.1,73.2,63.0,71.9,65.9,58.3,86,78,69,29.77,29.59,2,0,3,0.00
2014-7-1,88.2,78.6,68.8,74.6,70.6,65.7,92,77,59,29.62,29.47,3,0,4,0.00
2014-7-2,90.8,79.0,68.3,75.6,71.0,65.9,96,78,49,29.63,29.48,5,0,10,0.98
2014-7-3,78.7,70.8,66.2,75.1,69.1,65.0,97,95,83,29.65,29.57,2,0,2,0.20
2014-7-4,74.4,67.4,62.5,67.5,58.4,49.2,96,75,45,29.87,29.64,4,0,13,0.01
2014-7-5,75.1,64.8,53.0,58.8,52.6,48.3,88,66,44,29.96,29.83,2,0,3,0.00
2014-7-6,81.8,68.9,56.7,64.8,58.3,51.6,90,71,48,29.84,29.61,3,0,4,0.00
2014-7-7,85.9,76.6,68.6,69.7,64.8,60.4,79,68,54,29.62,29.47,4,0,5,0.00
2014-7-8,87.8,76.8,68.2,71.1,66.7,62.8,95,72,53,29.54,29.39,13,0,14,0.12
2014-7-9,81.9,71.1,65.9,72.6,68.3,64.1,96,91,67,29.64,29.49,3,0,4,0.80
2014-7-10,79.6,69.9,65.0,69.6,65.9,63.4,97,88,60,29.79,29.63,3,0,4,0.92
2014-7-11,77.0,68.6,63.2,70.5,65.5,62.0,97,91,74,29.88,29.77,1,0,2,0.00
2014-7-12,83.2,74.1,66.7,72.4,68.5,64.7,95,83,66,29.86,29.74,2,0,3,0.00
2014-7-13,86.0,77.0,70.0,74.4,69.6,65.6,90,78,62,29.74,29.57,3,0,6,0.00
2014-7-14,85.2,77.9,72.6,74.3,71.2,68.7,92,80,69,29.58,29.46,1,0,4,0.02
2014-7-15,79.4,72.8,68.3,71.9,68.9,65.5,95,88,73,29.47,29.37,1,0,6,0.00
2014-7-16,75.6,68.7,62.3,62.9,57.2,52.2,86,68,50,29.61,29.45,0,0,5,0.00
2014-7-17,74.3,67.7,59.1,60.3,56.6,52.4,84,68,52,29.78,29.61,0,0,7,0.00
2014-7-18,75.0,68.8,60.3,64.8,60.8,55.2,90,76,60,29.88,29.78,1,0,4,0.00
2014-7-19,72.3,65.8,62.4,65.5,62.2,58.9,96,89,65,29.85,29.77,2,0,3,0.15
2014-7-20,73.0,66.5,59.0,67.6,63.0,57.1,96,89,73,29.79,29.72,2,0,2,0.00
2014-7-21,79.1,72.4,66.7,71.1,67.5,63.7,92,85,69,29.82,29.74,3,0,4,0.01
2014-7-22,81.6,74.1,68.5,73.3,70.2,67.3,97,88,71,29.82,29.70,3,0,3,0.27
2014-7-23,84.1,75.1,69.5,76.8,70.7,67.6,95,87,69,29.70,29.47,3,0,4,0.02
2014-7-24,69.5,67.5,63.7,68.1,66.1,62.2,97,95,92,29.63,29.50,1,0,3,0.59
2014-7-25,75.9,67.1,59.4,67.2,62.8,58.3,97,87,65,29.75,29.63,2,0,2,0.01
2014-7-26,81.6,72.5,65.5,70.9,66.3,62.7,94,82,60,29.66,29.52,1,0,3,0.01
2014-7-27,75.7,70.3,65.9,72.6,68.2,64.7,97,93,81,29.56,29.31,4,0,5,1.05
2014-7-28,75.8,70.8,64.3,67.1,61.5,55.6,88,73,57,29.51,29.26,5,1,10,0.00
2014-7-29,70.7,62.6,55.7,58.4,54.4,51.1,90,75,53,29.69,29.51,3,0,4,0.00
2014-7-30,73.3,63.1,51.5,61.0,55.2,49.1,94,77,57,29.75,29.67,2,0,3,0.00
2014-7-31,80.0,68.8,58.7,64.2,59.9,55.3,91,75,48,29.77,29.71,3,0,3,0.00
2014-8-1,72.1,68.3,65.3,65.1,63.3,60.8,91,84,72,29.83,29.75,1,0,3,0.00
2014-8-2,74.1,67.4,60.4,65.9,62.3,57.8,93,84,72,29.80,29.70,3,0,4,0.00
2014-8-3,79.3,70.3,63.1,67.9,63.8,61.0,95,81,55,29.74,29.63,3,0,4,0.30
2014-8-4,78.6,69.1,60.4,68.6,64.2,59.1,97,85,60,29.77,29.69,2,0,3,0.02
2014-8-5,79.8,70.8,62.2,69.8,65.2,60.2,95,83,63,29.72,29.60,2,0,4,0.00
2014-8-6,76.7,68.8,62.3,69.4,64.8,60.7,96,88,72,29.62,29.53,2,0,5,0.00
2014-8-7,78.1,68.7,60.8,66.4,60.8,57.1,96,78,51,29.70,29.59,4,0,5,0.00
2014-8-8,76.1,67.5,59.7,66.1,60.9,56.3,91,80,63,29.77,29.68,2,0,3,0.00
2014-8-9,75.5,69.0,63.2,66.3,63.5,59.7,95,83,70,29.75,29.70,3,0,3,0.00
2014-8-10,75.1,67.9,59.5,67.3,62.5,57.1,94,83,70,29.77,29.71,3,0,3,0.00
2014-8-11,69.1,65.8,63.5,63.8,62.1,57.6,96,88,69,29.74,29.62,3,0,3,0.11
2014-8-12,77.9,69.5,63.5,73.4,67.4,62.3,97,93,84,29.62,29.38,5,0,9,1.05
2014-8-13,73.8,66.5,60.1,65.4,61.5,54.1,97,85,64,29.59,29.41,5,0,8,0.01
2014-8-14,76.0,65.3,54.8,64.5,56.3,52.2,94,74,48,29.61,29.53,4,0,5,0.00
2014-8-15,76.0,64.9,53.2,62.5,55.3,49.2,94,72,51,29.67,29.57,2,0,3,0.00
2014-8-16,78.3,65.8,51.5,63.5,55.4,48.6,92,71,49,29.68,29.57,2,0,4,0.00
2014-8-17,79.7,72.1,66.1,70.1,63.8,57.1,87,75,65,29.60,29.53,2,0,3,0.00
2014-8-18,77.2,71.0,65.5,68.6,65.9,63.2,93,84,70,29.56,29.41,2,0,3,0.00
2014-8-19,79.6,71.9,65.7,70.6,67.5,63.5,95,87,69,29.54,29.42,2,0,3,0.00
2014-8-20,83.2,72.8,67.1,72.7,68.4,65.6,96,87,64,29.64,29.51,4,0,6,0.76
2014-8-21,78.7,71.2,63.7,73.4,68.0,62.5,97,90,74,29.69,29.61,2,0,3,0.00
2014-8-22,77.5,71.3,66.5,72.3,68.5,64.7,96,91,80,29.64,29.55,1,0,2,0.02
2014-8-23,74.6,70.2,65.8,71.7,68.5,64.3,97,94,86,29.68,29.57,1,0,2,0.47
2014-8-24,69.9,66.3,63.3,65.4,63.4,61.7,96,90,80,29.77,29.67,1,0,2,0.00
2014-8-25,74.5,65.6,56.6,63.3,59.4,55.0,97,81,60,29.82,29.74,2,0,4,0.00
2014-8-26,77.4,66.1,54.2,64.3,58.9,52.3,97,79,52,29.83,29.73,2,0,3,0.00
2014-8-27,81.8,69.7,57.6,71.9,63.7,55.6,95,82,61,29.74,29.56,2,0,2,0.00
2014-8-28,82.7,74.7,66.9,69.3,63.9,54.9,91,71,47,29.69,29.56,4,0,5,0.00
2014-8-29,76.8,67.7,59.1,63.8,58.7,53.7,87,73,60,29.80,29.69,2,0,3,0.00
2014-8-30,83.2,74.0,66.6,72.8,67.6,61.7,89,81,68,29.81,29.69,3,0,4,0.00
2014-8-31,87.6,77.3,70.4,73.1,70.3,67.8,93,80,57,29.73,29.59,3,0,5,0.00
2014-9-1,86.6,78.0,72.7,72.2,69.3,66.3,88,75,57,29.65,29.54,3,0,3,0.00
2014-9-2,89.4,77.6,71.2,73.8,69.0,65.3,94,76,51,29.61,29.47,3,0,4,0.15
2014-9-3,80.8,74.2,67.8,71.0,68.3,65.7,95,82,64,29.73,29.53,2,0,4,0.00
2014-9-4,82.8,75.4,68.1,72.7,69.5,66.0,94,82,67,29.76,29.67,3,0,4,0.00
2014-9-5,85.7,76.6,68.8,73.4,70.4,66.8,95,82,60,29.77,29.63,3,0,4,0.00
2014-9-6,87.2,76.1,69.7,71.5,68.8,66.1,91,79,51,29.65,29.49,3,0,5,0.00
2014-9-7,73.5,68.1,63.1,66.4,58.5,52.8,89,72,55,29.77,29.58,3,0,5,0.00
2014-9-8,66.6,62.3,58.3,62.5,57.7,52.3,96,85,71,29.83,29.76,0,0,1,0.10
2014-9-9,70.7,65.1,60.4,65.3,61.4,56.8,93,88,81,29.81,29.70,2,0,2,0.00
2014-9-10,76.2,68.9,63.9,67.6,64.8,62.2,96,87,73,29.72,29.58,3,0,3,0.00
2014-9-11,82.7,74.3,67.2,71.7,67.3,64.2,91,79,61,29.59,29.48,3,0,5,0.00
2014-9-12,72.0,66.7,61.2,66.3,59.0,56.2,85,77,64,29.73,29.58,3,0,4,0.00
2014-9-13,68.5,62.8,56.3,65.0,58.6,51.3,96,86,73,29.85,29.68,3,0,5,0.10
2014-9-14,63.0,56.4,47.6,55.6,51.0,45.3,94,82,67,29.93,29.81,3,0,3,0.01
2014-9-15,71.0,60.6,51.2,59.9,55.2,49.3,96,83,59,29.86,29.62,2,0,4,0.00
2014-9-16,71.4,65.1,59.4,61.9,57.3,51.4,94,77,55,29.65,29.59,4,0,5,0.00
2014-9-17,71.0,60.6,51.0,56.2,52.4,48.4,92,75,53,29.67,29.55,2,0,4,0.00
2014-9-18,72.1,62.8,53.5,59.6,55.3,51.2,94,78,54,29.65,29.56,2,0,3,0.00
2014-9-27,75.0,62.1,50.3,58.2,53.7,48.2,95,76,50,29.87,29.77,0,0,4,0.00
2014-9-28,77.4,63.4,52.1,60.2,54.7,49.7,94,75,40,29.81,29.65,0,0,3,0.00
2014-9-29,70.5,63.9,58.7,61.7,58.5,55.8,91,83,72,29.65,29.52,0,0,1,0.00
2014-9-30,78.1,65.4,55.5,62.7,58.3,53.7,95,80,46,29.52,29.42,1,0,4,0.00
2014-10-1,70.3,63.7,58.4,61.8,59.5,56.4,95,87,73,29.65,29.52,0,0,2,0.00
2014-10-2,76.0,65.8,59.0,62.3,60.0,57.0,95,82,58,29.70,29.61,1,0,5,0.00
2014-10-3,72.0,65.3,62.5,64.1,61.9,59.1,96,89,70,29.66,29.26,3,0,9,0.19
2014-10-4,63.6,56.7,43.2,62.4,45.6,29.6,96,69,40,29.42,29.21,5,0,8,0.01
2014-10-5,60.1,48.9,37.3,40.1,35.7,32.2,88,62,38,29.56,29.40,3,0,5,0.00
2014-10-6,71.4,56.9,43.6,54.7,46.4,38.4,93,70,45,29.59,29.49,5,1,8,0.08
2014-10-7,68.8,57.5,51.6,58.4,53.9,49.8,96,88,61,29.63,29.47,6,1,6,0.22
2014-10-8,71.4,61.6,54.7,58.4,51.5,42.7,96,73,36,29.62,29.47,7,0,7,0.00
2014-10-9,70.8,60.0,47.6,51.9,47.5,43.3,89,65,44,29.73,29.61,5,0,8,0.00
2014-10-10,60.1,57.5,55.0,57.1,54.3,49.9,96,89,70,29.68,29.58,0,0,1,0.16
2014-10-11,55.4,53.0,52.0,54.3,51.9,50.6,97,96,94,29.75,29.53,2,0,3,0.19
2014-10-12,54.6,52.2,49.7,51.2,50.0,48.6,97,92,83,29.85,29.74,1,0,2,0.00
2014-10-13,65.7,58.4,52.5,63.5,57.2,51.1,97,96,91,29.83,29.73,1,0,2,0.15
2014-10-14,70.5,67.1,63.0,67.4,65.3,62.1,97,94,83,29.73,29.43,7,1,8,0.17
2014-10-15,71.1,61.2,53.1,67.1,59.4,52.0,97,94,82,29.43,29.30,9,0,9,1.68
2014-10-16,64.3,56.4,51.3,58.4,53.8,50.2,97,91,71,29.35,29.26,2,0,3,0.00
2014-10-17,68.1,58.7,49.1,55.5,51.9,47.5,96,79,58,29.41,29.24,4,0,5,0.00
2014-10-18,64.1,58.3,48.4,54.2,47.1,39.4,80,67,52,29.45,29.20,5,1,9,0.00
2014-10-19,58.3,49.9,43.5,41.1,36.3,30.3,78,61,35,29.66,29.44,6,0,9,0.00
2014-10-20,66.7,52.1,39.2,52.1,42.2,34.1,91,71,38,29.65,29.46,5,0,6,0.00
2014-10-21,64.5,55.5,48.8,52.0,49.0,45.7,92,80,55,29.46,29.33,5,0,8,0.01
2014-10-22,54.6,50.8,47.8,46.8,44.7,42.5,90,80,71,29.58,29.44,4,2,15,0.12
2014-10-23,60.4,52.7,46.7,45.5,43.1,40.7,81,70,57,29.56,29.47,4,2,28,0.00
2014-10-24,64.3,53.8,44.5,45.2,41.0,35.8,88,63,44,29.58,29.46,2,0,10,0.00
2014-10-25,69.5,54.2,40.0,48.9,42.3,35.3,87,66,43,29.53,29.28,3,0,6,0.00
2014-10-26,69.0,59.9,49.2,49.8,30.1,16.3,73,35,15,29.45,29.24,10,1,15,0.00
2014-10-27,74.6,57.1,40.0,46.9,35.0,25.5,72,46,20,29.59,29.45,3,0,4,0.00
2014-10-28,83.9,69.5,58.1,57.4,50.4,46.2,68,52,33,29.54,29.41,5,1,6,0.00
2014-10-29,67.5,59.7,48.5,56.0,50.2,38.8,92,72,55,29.48,29.37,3,0,7,0.04
2014-10-30,51.5,45.3,39.4,41.4,37.5,33.9,92,75,54,29.58,29.46,3,0,5,0.00
2014-10-31,50.8,42.5,33.7,42.0,36.8,31.5,93,81,61,29.54,29.33,3,0,3,0.02
2014-11-1,44.2,41.8,38.3,41.7,37.8,31.5,94,86,70,29.50,29.29,11,1,16,0.10
2014-11-2,45.4,38.7,33.0,32.2,26.0,21.1,74,61,39,29.80,29.50,11,2,19,0.00
2014-11-3,60.6,46.3,31.4,32.1,26.7,22.8,80,50,26,29.89,29.74,4,1,5,0.00
2014-11-4,70.9,61.1,51.7,34.8,27.8,21.1,37,29,18,29.74,29.56,4,1,6,0.00
2014-11-5,65.3,59.4,53.5,49.7,38.5,27.7,81,48,30,29.68,29.55,4,0,5,0.00
2014-11-6,61.8,52.5,47.1,56.8,47.8,37.7,96,84,67,29.55,29.16,9,1,11,0.31
2014-11-7,52.4,44.5,32.3,39.2,32.6,24.0,77,63,44,29.57,29.24,11,1,13,0.00
2014-11-8,51.1,39.7,26.7,35.4,29.9,23.3,89,69,50,29.57,29.40,5,0,8,0.00
2014-11-9,57.8,47.1,37.3,39.0,35.5,32.8,85,65,43,29.51,29.40,5,0,6,0.00
2014-11-10,63.6,48.9,37.9,43.0,38.6,33.8,89,69,43,29.62,29.51,8,0,9,0.00
2014-11-11,70.8,54.2,40.4,48.7,43.0,36.8,90,69,33,29.56,29.38,4,0,5,0.00
2014-11-12,62.7,52.5,38.3,49.0,40.0,30.6,89,65,34,29.59,29.35,5,1,9,0.00
2014-11-13,41.9,38.5,34.5,33.8,30.9,24.4,89,74,66,29.61,29.51,5,0,7,0.00
2014-11-14,35.8,30.2,23.1,25.3,16.8,13.6,69,57,45,29.83,29.57,9,1,17,0.00
2014-11-15,39.2,28.4,18.1,20.7,16.1,13.5,84,61,37,29.95,29.82,5,0,6,0.00
2014-11-16,45.5,37.7,33.0,35.3,26.0,15.9,94,65,41,29.83,29.49,3,0,4,0.10
2014-11-17,51.1,41.8,31.7,49.8,37.8,21.4,97,86,63,29.50,29.02,6,1,12,0.34
2014-11-18,31.5,23.5,16.5,22.2,8.3,2.7,69,52,36,29.75,29.28,15,2,16,0.00
2014-11-19,36.0,25.3,14.5,16.4,12.1,6.6,75,58,40,29.83,29.55,7,2,11,0.00
2014-11-20,51.2,39.8,30.9,29.2,20.0,13.4,64,46,29,29.59,29.39,8,2,13,0.00
2014-11-21,36.4,29.8,23.7,13.5,10.0,5.8,59,44,29,30.00,29.59,7,1,11,0.00
2014-11-22,55.4,38.5,21.6,24.6,17.3,8.4,66,43,27,30.00,29.72,7,1,7,0.00
2014-11-23,59.0,49.1,38.9,51.4,35.5,20.6,95,61,45,29.72,29.16,7,1,7,0.18
2014-11-24,69.5,60.1,52.8,57.1,53.2,51.1,96,79,56,29.26,29.06,7,1,10,0.05
2014-11-25,59.2,51.5,44.6,51.7,35.8,26.6,76,56,33,29.59,29.26,7,1,10,0.00
2014-11-26,44.7,35.8,32.2,39.7,32.9,29.3,96,90,55,29.59,29.41,3,0,4,0.41
2014-11-27,38.1,33.1,29.9,35.7,30.1,25.6,96,89,74,29.70,29.47,7,0,10,0.20
2014-11-28,34.8,30.1,26.5,26.3,21.3,17.7,82,70,53,29.82,29.69,8,0,11,0.02
2014-11-29,40.2,33.8,27.8,31.6,25.9,19.4,87,73,61,29.76,29.61,3,0,4,0.12
2014-11-30,62.7,50.1,36.3,49.4,40.3,30.0,79,69,59,29.63,29.54,7,2,9,0.21
2014-12-1,69.8,57.1,40.7,55.9,48.6,36.0,90,74,58,29.88,29.60,9,2,10,0.05
2014-12-2,40.4,35.9,33.7,37.1,34.2,31.9,96,93,88,29.97,29.75,4,0,5,0.63
2014-12-3,58.9,47.3,37.6,53.4,41.2,25.1,96,81,52,29.75,29.51,12,2,12,0.03
2014-12-4,43.6,38.4,33.8,34.6,29.8,25.4,92,71,57,29.91,29.75,4,0,5,0.07
2014-12-5,41.7,38.0,35.8,39.8,36.3,33.8,95,94,91,29.94,29.77,4,0,6,0.09
2014-12-6,53.6,47.3,41.7,51.4,45.3,37.2,96,93,85,29.77,29.46,13,2,16,0.57
2014-12-7,43.8,37.7,30.4,37.6,26.1,16.4,87,64,45,29.99,29.71,11,2,14,0.00
2014-12-8,34.4,30.4,26.3,29.0,23.3,17.2,94,75,59,30.01,29.72,4,0,5,0.00
2014-12-9,41.8,34.1,30.4,36.7,31.9,28.9,96,92,75,29.72,29.41,15,1,19,0.17
2014-12-10,43.4,38.9,30.5,34.3,30.0,22.6,79,70,58,29.42,29.34,14,2,18,0.06
2014-12-11,42.7,33.7,25.5,23.0,16.9,9.2,80,53,28,29.53,29.36,8,2,13,0.00
2014-12-12,50.1,38.9,29.4,24.6,20.6,13.5,68,49,30,29.59,29.51,9,1,11,0.00
2014-12-13,52.4,40.1,31.5,33.7,25.6,20.5,75,57,39,29.59,29.47,5,0,6,0.00
2014-12-14,56.1,40.8,30.4,38.2,31.9,23.8,86,72,49,29.54,29.44,8,1,13,0.00
2014-12-15,53.3,41.9,30.7,41.8,35.9,28.8,95,80,63,29.60,29.49,4,0,5,0.00
2014-12-16,53.3,45.0,36.8,48.3,40.3,33.7,95,84,69,29.49,29.27,5,0,8,0.14
2014-12-17,51.3,44.0,34.5,39.3,30.9,21.9,85,62,39,29.52,29.38,10,1,12,0.00
2014-12-18,41.7,34.4,28.4,25.3,23.1,20.1,73,63,49,29.64,29.52,7,0,8,0.00
2014-12-19,39.7,31.5,26.1,26.4,23.8,21.5,85,74,57,29.72,29.56,5,0,9,0.00
2014-12-20,36.6,29.7,22.6,27.8,24.2,19.6,90,80,68,29.77,29.68,3,0,4,0.00
2014-12-21,43.7,34.7,30.9,30.9,27.3,25.0,82,75,59,29.80,29.69,4,0,5,0.00
2014-12-22,33.9,32.8,31.5,31.7,30.1,27.5,95,90,78,29.74,29.56,2,0,3,0.10
2014-12-23,42.0,37.3,32.1,40.4,36.1,30.8,97,95,93,29.57,29.46,3,0,4,0.38
2014-12-24,57.0,47.7,40.1,55.6,46.6,39.0,97,96,92,29.46,29.00,5,1,7,0.27
2014-12-25,56.7,45.1,33.7,54.1,35.0,28.9,91,68,49,29.68,29.05,11,2,15,0.00
2014-12-26,54.0,40.7,28.7,36.1,30.5,25.6,90,69,48,29.79,29.65,5,1,5,0.00
2014-12-27,61.6,48.6,38.1,36.3,29.0,24.0,77,49,25,29.75,29.50,4,0,5,0.00
2014-12-28,59.6,52.1,45.6,51.2,43.1,32.2,95,73,45,29.52,29.35,7,1,8,0.07
2014-12-29,45.4,37.9,35.7,42.6,34.0,28.2,92,86,75,29.70,29.50,5,0,8,0.05
2014-12-30,35.6,32.8,30.6,28.3,24.7,20.0,76,72,56,29.86,29.69,4,1,8,0.00
2014-12-31,37.2,28.8,22.2,18.2,13.2,9.1,80,54,34,29.89,29.70,3,1,9,0.00
2015-1-1,45.5,36.6,25.1,25.6,21.8,12.4,65,55,39,29.70,29.53,6,2,9,0.00
2015-1-2,45.6,38.4,32.8,30.6,26.0,20.5,77,61,48,29.85,29.56,4,1,7,0.00